createdAt,value
2019-03-20T00:00:28.545Z,3.70
2019-03-20T00:01:28.494Z,3.50
2019-03-20T00:02:28.571Z,3.60
2019-03-20T00:03:28.504Z,3.80
2019-03-20T00:04:29.049Z,3.70
2019-03-20T00:05:28.480Z,3.90
2019-03-20T00:06:28.440Z,3.80
2019-03-20T00:07:28.426Z,3.80
2019-03-20T00:08:29.116Z,3.90
2019-03-20T00:09:28.404Z,4.00
2019-03-20T00:10:28.412Z,3.80
2019-03-20T00:11:28.419Z,4.00
2019-03-20T00:12:28.457Z,3.50
2019-03-20T00:13:28.367Z,3.60
2019-03-20T00:14:29.095Z,4.10
2019-03-20T00:15:28.374Z,3.80
2019-03-20T00:16:28.324Z,4.30
2019-03-20T00:17:28.376Z,3.70
2019-03-20T00:18:28.331Z,4.10
2019-03-20T00:19:28.363Z,4.00
2019-03-20T00:20:28.286Z,4.00
2019-03-20T00:21:28.369Z,4.30
2019-03-20T00:22:28.257Z,4.10
2019-03-20T00:23:28.243Z,3.90
2019-03-20T00:24:28.267Z,4.10
2019-03-20T00:25:28.228Z,4.00
2019-03-20T00:26:28.261Z,4.00
2019-03-20T00:27:28.214Z,4.20
2019-03-20T00:28:29.029Z,3.80
2019-03-20T00:29:28.229Z,3.80
2019-03-20T00:30:28.180Z,3.90
2019-03-20T00:31:28.156Z,3.90
2019-03-20T00:32:28.250Z,3.90
2019-03-20T00:33:28.145Z,4.10
2019-03-20T00:34:28.178Z,3.70
2019-03-20T00:35:28.188Z,3.80
2019-03-20T00:36:28.177Z,3.70
2019-03-20T00:37:28.252Z,4.10
2019-03-20T00:38:28.157Z,3.80
2019-03-20T00:39:28.145Z,4.20
2019-03-20T00:40:28.070Z,4.10
2019-03-20T00:41:28.155Z,4.10
2019-03-20T00:42:29.026Z,4.00
2019-03-20T00:43:28.124Z,3.90
2019-03-20T00:44:28.057Z,3.90
2019-03-20T00:45:28.010Z,3.90
2019-03-20T00:46:28.007Z,3.80
2019-03-20T00:47:28.024Z,3.60
2019-03-20T00:48:28.025Z,4.10
2019-03-20T00:49:28.519Z,3.90
2019-03-20T00:50:27.991Z,3.90
2019-03-20T00:51:28.514Z,4.00
2019-03-20T00:52:27.989Z,4.40
2019-03-20T00:53:27.960Z,3.60
2019-03-20T00:54:27.939Z,4.10
2019-03-20T00:55:27.903Z,3.80
2019-03-20T00:56:27.898Z,3.70
2019-03-20T00:57:27.932Z,3.80
2019-03-20T00:58:27.872Z,4.20
2019-03-20T00:59:28.513Z,4.10
2019-03-20T01:00:28.549Z,4.00
2019-03-20T01:01:27.877Z,4.50
2019-03-20T01:02:27.860Z,4.30
2019-03-20T01:03:27.874Z,4.30
2019-03-20T01:04:27.845Z,4.30
2019-03-20T01:05:27.865Z,4.40
2019-03-20T01:06:27.819Z,4.00
2019-03-20T01:07:27.776Z,4.50
2019-03-20T01:08:27.760Z,3.90
2019-03-20T01:09:27.777Z,4.40
2019-03-20T01:10:27.800Z,4.20
2019-03-20T01:11:27.802Z,4.60
2019-03-20T01:12:27.727Z,4.40
2019-03-20T01:13:28.502Z,4.40
2019-03-20T01:14:27.731Z,4.50
2019-03-20T01:15:27.704Z,4.50
2019-03-20T01:16:27.670Z,4.80
2019-03-20T01:17:27.756Z,4.10
2019-03-20T01:18:27.681Z,4.10
2019-03-20T01:19:27.639Z,4.50
2019-03-20T01:20:27.715Z,4.80
2019-03-20T01:21:28.526Z,4.50
2019-03-20T01:22:27.634Z,4.80
2019-03-20T01:23:27.649Z,5.10
2019-03-20T01:24:27.586Z,4.50
2019-03-20T01:25:27.573Z,5.00
2019-03-20T01:26:27.563Z,4.80
2019-03-20T01:27:27.663Z,5.10
2019-03-20T01:28:27.572Z,4.70
2019-03-20T01:29:28.495Z,4.70
2019-03-20T01:30:27.512Z,5.30
2019-03-20T01:31:28.527Z,5.10
2019-03-20T01:32:28.498Z,4.90
2019-03-20T01:33:27.483Z,5.10
2019-03-20T01:34:27.506Z,5.10
2019-03-20T01:35:27.459Z,5.10
2019-03-20T01:36:27.466Z,5.00
2019-03-20T01:37:31.755Z,5.00
2019-03-20T01:38:27.451Z,5.10
2019-03-20T01:39:27.438Z,5.00
2019-03-20T01:40:27.412Z,4.90
2019-03-20T01:41:37.408Z,4.70
2019-03-20T01:42:28.982Z,4.90
2019-03-20T01:43:27.986Z,4.90
2019-03-20T01:44:27.446Z,4.70
2019-03-20T01:45:27.381Z,4.80
2019-03-20T01:46:27.983Z,5.00
2019-03-20T01:47:27.392Z,4.80
2019-03-20T01:48:27.393Z,4.80
2019-03-20T01:49:27.337Z,5.00
2019-03-20T01:50:27.313Z,4.70
2019-03-20T01:51:28.019Z,4.90
2019-03-20T01:52:27.336Z,4.80
2019-03-20T01:53:27.268Z,4.60
2019-03-20T01:54:27.279Z,4.60
2019-03-20T01:55:27.979Z,4.90
2019-03-20T01:56:27.983Z,4.80
2019-03-20T01:57:27.241Z,4.80
2019-03-20T01:58:27.216Z,4.90
2019-03-20T01:59:27.197Z,4.80
2019-03-20T02:00:27.217Z,4.90
2019-03-20T02:01:27.238Z,5.00
2019-03-20T02:02:27.198Z,5.10
2019-03-20T02:03:27.972Z,4.70
2019-03-20T02:04:27.165Z,4.80
2019-03-20T02:05:35.721Z,4.30
2019-03-20T02:06:28.242Z,4.60
2019-03-20T02:07:27.115Z,4.80
2019-03-20T02:08:27.153Z,4.60
2019-03-20T02:09:27.096Z,4.50
2019-03-20T02:10:27.133Z,4.90
2019-03-20T02:11:27.068Z,4.90
2019-03-20T02:12:27.087Z,4.60
2019-03-20T02:13:27.106Z,4.70
2019-03-20T02:14:27.058Z,4.60
2019-03-20T02:15:37.696Z,4.40
2019-03-20T02:16:28.119Z,4.50
2019-03-20T02:17:26.997Z,4.60
2019-03-20T02:18:27.135Z,4.40
2019-03-20T02:19:27.006Z,4.90
2019-03-20T02:20:26.989Z,4.80
2019-03-20T02:21:26.986Z,4.50
2019-03-20T02:22:27.464Z,5.20
2019-03-20T02:23:30.284Z,4.70
2019-03-20T02:24:26.958Z,4.80
2019-03-20T02:25:27.009Z,5.10
2019-03-20T02:26:26.908Z,5.00
2019-03-20T02:27:26.901Z,5.30
2019-03-20T02:28:26.914Z,5.00
2019-03-20T02:29:27.498Z,5.00
2019-03-20T02:30:27.458Z,5.40
2019-03-20T02:31:26.892Z,5.40
2019-03-20T02:32:27.955Z,5.20
2019-03-20T02:33:27.462Z,5.30
2019-03-20T02:34:27.459Z,5.00
2019-03-20T02:35:26.840Z,5.50
2019-03-20T02:36:26.806Z,4.70
2019-03-20T02:37:26.815Z,5.10
2019-03-20T02:38:26.813Z,4.90
2019-03-20T02:39:27.459Z,5.00
2019-03-20T02:40:26.817Z,5.00
2019-03-20T02:41:26.751Z,5.30
2019-03-20T02:42:26.757Z,4.60
2019-03-20T02:43:26.781Z,4.90
2019-03-20T02:44:26.749Z,4.80
2019-03-20T02:45:26.719Z,4.50
2019-03-20T02:46:26.719Z,4.80
2019-03-20T02:47:26.676Z,4.60
2019-03-20T02:48:27.445Z,4.50
2019-03-20T02:49:26.698Z,4.30
2019-03-20T02:50:27.447Z,4.70
2019-03-20T02:51:26.666Z,4.80
2019-03-20T02:52:26.698Z,4.90
2019-03-20T02:53:26.613Z,4.50
2019-03-20T02:54:26.653Z,4.70
2019-03-20T02:55:26.703Z,4.50
2019-03-20T02:56:26.631Z,4.30
2019-03-20T02:57:26.610Z,4.70
2019-03-20T02:58:27.443Z,4.70
2019-03-20T02:59:26.585Z,4.50
2019-03-20T03:00:26.550Z,4.40
2019-03-20T03:01:26.610Z,4.80
2019-03-20T03:02:26.515Z,4.70
2019-03-20T03:03:26.507Z,4.50
2019-03-20T03:04:27.437Z,4.40
2019-03-20T03:05:26.488Z,4.40
2019-03-20T03:06:27.438Z,4.50
2019-03-20T03:07:26.465Z,4.80
2019-03-20T03:08:26.487Z,4.70
2019-03-20T03:09:26.471Z,4.20
2019-03-20T03:10:26.936Z,4.50
2019-03-20T03:11:26.461Z,4.60
2019-03-20T03:12:26.507Z,4.40
2019-03-20T03:13:26.469Z,4.80
2019-03-20T03:14:26.504Z,4.40
2019-03-20T03:15:26.417Z,4.70
2019-03-20T03:16:26.936Z,4.50
2019-03-20T03:17:26.397Z,4.70
2019-03-20T03:18:26.381Z,4.40
2019-03-20T03:19:26.338Z,4.80
2019-03-20T03:20:26.353Z,4.40
2019-03-20T03:21:26.314Z,4.60
2019-03-20T03:22:26.302Z,4.40
2019-03-20T03:23:26.928Z,4.50
2019-03-20T03:24:26.283Z,4.70
2019-03-20T03:25:26.305Z,4.30
2019-03-20T03:26:26.301Z,4.30
2019-03-20T03:27:26.323Z,4.70
2019-03-20T03:28:26.312Z,4.20
2019-03-20T03:29:26.234Z,4.40
2019-03-20T03:30:26.243Z,4.20
2019-03-20T03:31:26.924Z,4.30
2019-03-20T03:32:26.235Z,4.40
2019-03-20T03:33:26.221Z,4.30
2019-03-20T03:34:26.230Z,4.30
2019-03-20T03:35:26.181Z,4.40
2019-03-20T03:36:26.184Z,4.90
2019-03-20T03:37:26.219Z,4.10
2019-03-20T03:38:26.136Z,4.60
2019-03-20T03:39:26.167Z,4.40
2019-03-20T03:40:26.188Z,4.50
2019-03-20T03:41:26.920Z,4.40
2019-03-20T03:42:26.091Z,4.20
2019-03-20T03:43:26.129Z,4.50
2019-03-20T03:44:26.103Z,4.20
2019-03-20T03:45:26.093Z,4.60
2019-03-20T03:46:26.097Z,4.20
2019-03-20T03:47:26.915Z,4.60
2019-03-20T03:48:26.065Z,4.40
2019-03-20T03:49:26.070Z,4.30
2019-03-20T03:50:26.039Z,4.70
2019-03-20T03:51:26.924Z,4.60
2019-03-20T03:52:25.991Z,4.60
2019-03-20T03:53:26.911Z,4.50
2019-03-20T03:54:25.961Z,4.60
2019-03-20T03:55:25.993Z,4.50
2019-03-20T03:56:25.983Z,4.60
2019-03-20T03:57:25.942Z,4.70
2019-03-20T03:58:25.948Z,4.70
2019-03-20T03:59:25.910Z,4.60
2019-03-20T04:00:25.940Z,4.60
2019-03-20T04:01:25.904Z,4.30
2019-03-20T04:02:25.984Z,4.60
2019-03-20T04:03:25.868Z,4.50
2019-03-20T04:04:25.925Z,4.60
2019-03-20T04:05:25.857Z,4.70
2019-03-20T04:06:35.634Z,4.90
2019-03-20T04:07:26.864Z,4.60
2019-03-20T04:08:25.887Z,4.30
2019-03-20T04:09:25.836Z,4.30
2019-03-20T04:10:26.899Z,4.40
2019-03-20T04:11:25.814Z,4.90
2019-03-20T04:12:25.774Z,4.60
2019-03-20T04:13:25.764Z,5.20
2019-03-20T04:14:25.821Z,5.00
2019-03-20T04:15:25.785Z,4.80
2019-03-20T04:16:25.729Z,4.90
2019-03-20T04:17:26.039Z,5.30
2019-03-20T04:18:25.808Z,4.80
2019-03-20T04:19:25.816Z,5.10
2019-03-20T04:20:25.717Z,4.70
2019-03-20T04:21:25.713Z,5.00
2019-03-20T04:22:25.756Z,5.20
2019-03-20T04:23:25.690Z,5.00
2019-03-20T04:24:25.648Z,5.40
2019-03-20T04:25:25.648Z,5.00
2019-03-20T04:26:25.672Z,4.80
2019-03-20T04:27:25.665Z,5.10
2019-03-20T04:28:25.629Z,4.90
2019-03-20T04:29:26.390Z,5.20
2019-03-20T04:30:26.432Z,5.20
2019-03-20T04:31:25.560Z,5.40
2019-03-20T04:32:25.589Z,5.00
2019-03-20T04:33:25.622Z,5.00
2019-03-20T04:34:25.568Z,5.00
2019-03-20T04:35:26.383Z,5.30
2019-03-20T04:36:25.579Z,5.90
2019-03-20T04:37:25.574Z,6.00
2019-03-20T04:38:25.610Z,5.10
2019-03-20T04:39:25.536Z,5.20
2019-03-20T04:40:25.494Z,5.30
2019-03-20T04:41:25.518Z,5.30
2019-03-20T04:42:25.505Z,5.30
2019-03-20T04:43:25.479Z,5.30
2019-03-20T04:44:25.516Z,4.90
2019-03-20T04:45:25.447Z,5.50
2019-03-20T04:46:25.512Z,5.30
2019-03-20T04:47:25.434Z,5.30
2019-03-20T04:48:25.415Z,5.10
2019-03-20T04:49:25.509Z,5.40
2019-03-20T04:50:25.424Z,4.70
2019-03-20T04:51:25.362Z,4.90
2019-03-20T04:52:25.874Z,5.00
2019-03-20T04:53:25.328Z,5.10
2019-03-20T04:54:25.878Z,4.70
2019-03-20T04:55:25.327Z,4.80
2019-03-20T04:56:25.332Z,4.50
2019-03-20T04:57:25.323Z,5.00
2019-03-20T04:58:25.900Z,5.10
2019-03-20T04:59:25.870Z,5.00
2019-03-20T05:00:25.339Z,4.80
2019-03-20T05:01:25.258Z,4.80
2019-03-20T05:02:25.272Z,4.90
2019-03-20T05:03:25.258Z,5.30
2019-03-20T05:04:25.226Z,5.30
2019-03-20T05:05:25.243Z,5.00
2019-03-20T05:06:25.264Z,5.10
2019-03-20T05:07:25.233Z,5.20
2019-03-20T05:08:25.172Z,4.80
2019-03-20T05:09:25.194Z,4.90
2019-03-20T05:10:25.156Z,4.90
2019-03-20T05:11:25.173Z,5.00
2019-03-20T05:12:25.160Z,4.90
2019-03-20T05:13:25.860Z,5.00
2019-03-20T05:14:25.148Z,4.90
2019-03-20T05:15:25.179Z,5.20
2019-03-20T05:16:25.107Z,5.10
2019-03-20T05:17:25.113Z,4.80
2019-03-20T05:18:25.069Z,4.70
2019-03-20T05:19:25.048Z,4.50
2019-03-20T05:20:25.100Z,4.50
2019-03-20T05:21:25.022Z,5.00
2019-03-20T05:22:25.077Z,4.80
2019-03-20T05:23:25.023Z,4.40
2019-03-20T05:24:24.998Z,4.90
2019-03-20T05:25:25.010Z,4.70
2019-03-20T05:26:24.973Z,4.80
2019-03-20T05:27:24.956Z,4.90
2019-03-20T05:28:24.986Z,5.00
2019-03-20T05:29:24.946Z,5.00
2019-03-20T05:30:25.050Z,5.20
2019-03-20T05:31:24.959Z,5.20
2019-03-20T05:32:24.998Z,5.00
2019-03-20T05:33:24.903Z,5.40
2019-03-20T05:34:24.966Z,5.00
2019-03-20T05:35:24.902Z,5.00
2019-03-20T05:36:24.937Z,5.20
2019-03-20T05:37:24.871Z,4.80
2019-03-20T05:38:24.844Z,4.90
2019-03-20T05:39:24.831Z,4.70
2019-03-20T05:40:24.820Z,4.80
2019-03-20T05:41:24.857Z,4.60
2019-03-20T05:42:24.819Z,4.70
2019-03-20T05:43:24.832Z,5.20
2019-03-20T05:44:24.814Z,5.20
2019-03-20T05:45:24.765Z,5.00
2019-03-20T05:46:24.890Z,4.90
2019-03-20T05:47:24.752Z,5.00
2019-03-20T05:48:24.760Z,4.90
2019-03-20T05:49:24.722Z,4.80
2019-03-20T05:50:24.787Z,5.10
2019-03-20T05:51:28.035Z,5.00
2019-03-20T05:52:25.336Z,5.00
2019-03-20T05:53:24.677Z,4.80
2019-03-20T05:54:24.670Z,4.70
2019-03-20T05:55:24.694Z,5.00
2019-03-20T05:56:24.690Z,5.00
2019-03-20T05:57:25.333Z,5.20
2019-03-20T05:58:24.688Z,5.20
2019-03-20T05:59:24.646Z,5.10
2019-03-20T06:00:25.419Z,5.20
2019-03-20T06:01:24.631Z,4.90
2019-03-20T06:02:25.792Z,5.00
2019-03-20T06:03:24.595Z,5.10
2019-03-20T06:04:24.551Z,5.00
2019-03-20T06:05:24.552Z,5.00
2019-03-20T06:06:24.534Z,4.80
2019-03-20T06:07:24.565Z,4.90
2019-03-20T06:08:24.576Z,5.00
2019-03-20T06:09:24.530Z,4.80
2019-03-20T06:10:24.504Z,5.20
2019-03-20T06:11:24.517Z,4.90
2019-03-20T06:12:24.470Z,5.10
2019-03-20T06:13:25.318Z,5.50
2019-03-20T06:14:24.468Z,4.80
2019-03-20T06:15:24.715Z,5.50
2019-03-20T06:16:24.427Z,4.80
2019-03-20T06:17:25.319Z,4.90
2019-03-20T06:18:24.414Z,4.70
2019-03-20T06:19:24.402Z,4.90
2019-03-20T06:20:24.473Z,5.10
2019-03-20T06:21:24.377Z,5.00
2019-03-20T06:22:24.451Z,4.60
2019-03-20T06:23:24.416Z,5.20
2019-03-20T06:24:24.384Z,5.20
2019-03-20T06:25:24.331Z,5.30
2019-03-20T06:26:24.319Z,5.00
2019-03-20T06:27:25.313Z,5.10
2019-03-20T06:28:24.349Z,4.90
2019-03-20T06:29:24.287Z,5.00
2019-03-20T06:30:24.310Z,5.40
2019-03-20T06:31:24.313Z,5.20
2019-03-20T06:32:24.313Z,5.20
2019-03-20T06:33:24.263Z,5.40
2019-03-20T06:34:24.282Z,5.10
2019-03-20T06:35:24.221Z,5.20
2019-03-20T06:36:24.283Z,5.10
2019-03-20T06:37:32.114Z,5.00
2019-03-20T06:38:25.226Z,4.80
2019-03-20T06:39:24.185Z,4.80
2019-03-20T06:40:26.874Z,5.00
2019-03-20T06:41:24.214Z,4.70
2019-03-20T06:42:24.190Z,4.30
2019-03-20T06:43:24.148Z,4.60
2019-03-20T06:44:24.852Z,4.40
2019-03-20T06:45:24.183Z,5.00
2019-03-20T06:46:24.805Z,4.90
2019-03-20T06:47:24.098Z,4.90
2019-03-20T06:48:24.077Z,5.10
2019-03-20T06:49:24.071Z,4.80
2019-03-20T06:50:24.063Z,4.50
2019-03-20T06:51:25.330Z,4.60
2019-03-20T06:52:24.840Z,4.60
2019-03-20T06:53:24.033Z,4.60
2019-03-20T06:54:24.023Z,4.50
2019-03-20T06:55:24.031Z,4.40
2019-03-20T06:56:24.001Z,4.50
2019-03-20T06:57:24.009Z,4.50
2019-03-20T06:58:23.981Z,4.30
2019-03-20T06:59:23.966Z,4.30
2019-03-20T07:00:24.017Z,4.40
2019-03-20T07:01:23.942Z,4.10
2019-03-20T07:02:24.033Z,4.30
2019-03-20T07:03:23.926Z,3.70
2019-03-20T07:04:23.908Z,3.90
2019-03-20T07:05:23.898Z,4.10
2019-03-20T07:06:23.890Z,4.00
2019-03-20T07:07:23.911Z,3.80
2019-03-20T07:08:23.883Z,3.80
2019-03-20T07:09:23.895Z,3.80
2019-03-20T07:10:23.849Z,4.10
2019-03-20T07:11:24.787Z,3.50
2019-03-20T07:12:23.865Z,3.90
2019-03-20T07:13:23.818Z,3.90
2019-03-20T07:14:23.852Z,4.20
2019-03-20T07:15:23.788Z,3.90
2019-03-20T07:16:24.285Z,3.70
2019-03-20T07:17:23.833Z,4.00
2019-03-20T07:18:23.790Z,3.90
2019-03-20T07:19:24.351Z,3.90
2019-03-20T07:20:23.741Z,3.80
2019-03-20T07:21:23.727Z,3.70
2019-03-20T07:22:23.725Z,4.00
2019-03-20T07:23:23.789Z,4.00
2019-03-20T07:24:23.723Z,4.10
2019-03-20T07:25:23.688Z,4.20
2019-03-20T07:26:23.698Z,4.30
2019-03-20T07:27:23.748Z,4.30
2019-03-20T07:28:23.682Z,4.10
2019-03-20T07:29:23.649Z,4.40
2019-03-20T07:30:24.278Z,4.10
2019-03-20T07:31:23.676Z,4.10
2019-03-20T07:32:23.621Z,3.90
2019-03-20T07:33:23.621Z,3.90
2019-03-20T07:34:23.581Z,3.90
2019-03-20T07:35:23.602Z,4.30
2019-03-20T07:36:23.554Z,4.20
2019-03-20T07:37:24.794Z,4.00
2019-03-20T07:38:23.549Z,4.00
2019-03-20T07:39:23.556Z,3.70
2019-03-20T07:40:23.519Z,4.00
2019-03-20T07:41:23.593Z,3.80
2019-03-20T07:42:23.520Z,4.10
2019-03-20T07:43:26.853Z,3.60
2019-03-20T07:44:24.306Z,3.70
2019-03-20T07:45:23.462Z,3.90
2019-03-20T07:46:24.286Z,3.90
2019-03-20T07:47:23.473Z,4.20
2019-03-20T07:48:23.435Z,3.90
2019-03-20T07:49:23.435Z,3.70
2019-03-20T07:50:23.401Z,3.70
2019-03-20T07:51:23.399Z,3.80
2019-03-20T07:52:24.003Z,3.90
2019-03-20T07:53:23.402Z,3.90
2019-03-20T07:54:23.361Z,3.90
2019-03-20T07:55:23.383Z,4.00
2019-03-20T07:56:23.351Z,4.00
2019-03-20T07:57:23.401Z,4.00
2019-03-20T07:58:23.318Z,4.00
2019-03-20T07:59:23.370Z,3.70
2019-03-20T08:00:23.359Z,4.10
2019-03-20T08:01:23.298Z,4.00
2019-03-20T08:02:23.331Z,3.80
2019-03-20T08:03:23.302Z,3.80
2019-03-20T08:04:23.755Z,3.20
2019-03-20T08:05:29.138Z,3.90
2019-03-20T08:06:24.251Z,3.70
2019-03-20T08:07:23.222Z,3.60
2019-03-20T08:08:23.754Z,3.70
2019-03-20T08:09:25.498Z,3.10
2019-03-20T08:10:23.758Z,3.40
2019-03-20T08:11:23.184Z,3.50
2019-03-20T08:12:23.214Z,3.70
2019-03-20T08:13:23.152Z,3.40
2019-03-20T08:14:23.163Z,3.20
2019-03-20T08:15:23.747Z,3.70
2019-03-20T08:16:23.128Z,3.80
2019-03-20T08:17:25.822Z,3.30
2019-03-20T08:18:23.102Z,3.30
2019-03-20T08:19:23.742Z,3.10
2019-03-20T08:20:23.114Z,3.10
2019-03-20T08:21:23.070Z,3.10
2019-03-20T08:22:23.081Z,3.50
2019-03-20T08:23:23.094Z,3.50
2019-03-20T08:24:23.073Z,3.60
2019-03-20T08:25:23.053Z,3.60
2019-03-20T08:26:23.015Z,3.40
2019-03-20T08:27:23.000Z,3.40
2019-03-20T08:28:22.999Z,3.60
2019-03-20T08:29:22.978Z,3.40
2019-03-20T08:30:22.991Z,3.40
2019-03-20T08:31:22.959Z,3.30
2019-03-20T08:32:22.981Z,3.30
2019-03-20T08:33:22.964Z,3.50
2019-03-20T08:34:22.931Z,3.40
2019-03-20T08:35:22.934Z,3.50
2019-03-20T08:36:22.931Z,3.50
2019-03-20T08:37:22.932Z,3.70
2019-03-20T08:38:22.882Z,3.40
2019-03-20T08:39:22.901Z,3.50
2019-03-20T08:40:22.892Z,3.40
2019-03-20T08:41:22.890Z,3.50
2019-03-20T08:42:23.738Z,3.10
2019-03-20T08:43:22.830Z,3.10
2019-03-20T08:44:22.859Z,3.40
2019-03-20T08:45:23.728Z,3.50
2019-03-20T08:46:22.805Z,3.80
2019-03-20T08:47:22.812Z,3.30
2019-03-20T08:48:22.780Z,3.20
2019-03-20T08:49:22.795Z,3.50
2019-03-20T08:50:22.774Z,3.60
2019-03-20T08:51:22.805Z,3.60
2019-03-20T08:52:22.732Z,3.60
2019-03-20T08:53:22.744Z,3.70
2019-03-20T08:54:22.786Z,3.70
2019-03-20T08:55:22.741Z,3.60
2019-03-20T08:56:22.692Z,3.50
2019-03-20T08:57:22.719Z,3.50
2019-03-20T08:58:22.793Z,3.60
2019-03-20T08:59:22.653Z,3.80
2019-03-20T09:00:22.685Z,3.50
2019-03-20T09:01:28.493Z,3.40
2019-03-20T09:02:23.618Z,3.90
2019-03-20T09:03:22.630Z,3.80
2019-03-20T09:04:22.598Z,3.70
2019-03-20T09:05:22.667Z,3.50
2019-03-20T09:06:22.581Z,3.20
2019-03-20T09:07:24.216Z,3.70
2019-03-20T09:08:29.264Z,3.50
2019-03-20T09:09:23.542Z,3.40
2019-03-20T09:10:22.574Z,3.70
2019-03-20T09:11:22.559Z,3.80
2019-03-20T09:12:23.264Z,3.80
2019-03-20T09:13:22.577Z,3.50
2019-03-20T09:14:22.498Z,3.40
2019-03-20T09:15:22.514Z,3.50
2019-03-20T09:16:22.473Z,3.30
2019-03-20T09:17:22.521Z,3.50
2019-03-20T09:18:22.498Z,3.50
2019-03-20T09:19:23.212Z,3.70
2019-03-20T09:20:23.219Z,4.20
2019-03-20T09:21:22.444Z,4.50
2019-03-20T09:22:22.465Z,4.30
2019-03-20T09:23:22.417Z,4.80
2019-03-20T09:24:23.209Z,4.20
2019-03-20T09:25:22.371Z,3.70
2019-03-20T09:26:22.362Z,3.90
2019-03-20T09:27:22.387Z,3.50
2019-03-20T09:28:23.206Z,3.50
2019-03-20T09:29:22.327Z,3.30
2019-03-20T09:30:22.355Z,3.20
2019-03-20T09:31:22.305Z,3.20
2019-03-20T09:32:23.247Z,3.30
2019-03-20T09:33:22.345Z,3.20
2019-03-20T09:34:22.275Z,3.10
2019-03-20T09:35:22.301Z,3.20
2019-03-20T09:36:22.248Z,3.50
2019-03-20T09:37:22.280Z,3.60
2019-03-20T09:38:23.203Z,3.50
2019-03-20T09:39:23.199Z,3.50
2019-03-20T09:40:23.868Z,3.40
2019-03-20T09:41:22.195Z,3.60
2019-03-20T09:42:22.189Z,3.30
2019-03-20T09:43:22.748Z,3.00
2019-03-20T09:44:22.157Z,3.20
2019-03-20T09:45:22.183Z,3.20
2019-03-20T09:46:22.135Z,2.80
2019-03-20T09:47:22.128Z,3.00
2019-03-20T09:48:22.212Z,2.60
2019-03-20T09:49:22.108Z,3.30
2019-03-20T09:50:22.138Z,2.60
2019-03-20T09:51:22.106Z,2.90
2019-03-20T09:52:22.098Z,3.20
2019-03-20T09:53:22.095Z,3.10
2019-03-20T09:54:22.063Z,3.10
2019-03-20T09:55:22.688Z,2.90
2019-03-20T09:56:22.687Z,2.90
2019-03-20T09:57:22.037Z,2.90
2019-03-20T09:58:22.047Z,3.10
2019-03-20T09:59:22.017Z,3.10
2019-03-20T10:00:21.990Z,2.90
2019-03-20T10:01:22.012Z,3.70
2019-03-20T10:02:22.092Z,3.80
2019-03-20T10:03:22.027Z,3.60
2019-03-20T10:04:21.956Z,3.40
2019-03-20T10:05:24.727Z,3.20
2019-03-20T10:06:21.916Z,3.00
2019-03-20T10:07:21.971Z,3.10
2019-03-20T10:08:21.915Z,3.30
2019-03-20T10:09:21.942Z,3.00
2019-03-20T10:10:21.872Z,3.40
2019-03-20T10:11:22.685Z,3.40
2019-03-20T10:12:21.864Z,3.50
2019-03-20T10:13:21.842Z,3.60
2019-03-20T10:14:21.868Z,3.10
2019-03-20T10:15:21.876Z,3.20
2019-03-20T10:16:21.876Z,3.00
2019-03-20T10:17:21.866Z,2.70
2019-03-20T10:18:21.782Z,3.10
2019-03-20T10:19:21.875Z,2.70
2019-03-20T10:20:21.761Z,3.00
2019-03-20T10:21:21.785Z,3.00
2019-03-20T10:22:21.740Z,2.90
2019-03-20T10:23:21.735Z,2.90
2019-03-20T10:24:21.864Z,2.80
2019-03-20T10:25:21.715Z,3.00
2019-03-20T10:26:22.675Z,3.00
2019-03-20T10:27:21.682Z,3.00
2019-03-20T10:28:21.750Z,3.60
2019-03-20T10:29:22.670Z,2.90
2019-03-20T10:30:21.716Z,3.30
2019-03-20T10:31:21.691Z,3.20
2019-03-20T10:32:21.635Z,2.90
2019-03-20T10:33:21.645Z,3.30
2019-03-20T10:34:21.673Z,3.30
2019-03-20T10:35:21.609Z,3.40
2019-03-20T10:36:21.645Z,3.00
2019-03-20T10:37:21.608Z,3.60
2019-03-20T10:38:21.567Z,3.20
2019-03-20T10:39:22.168Z,4.00
2019-03-20T10:40:21.562Z,3.40
2019-03-20T10:41:22.668Z,2.80
2019-03-20T10:42:21.536Z,2.80
2019-03-20T10:43:21.514Z,2.70
2019-03-20T10:44:21.591Z,2.90
2019-03-20T10:45:21.498Z,2.60
2019-03-20T10:46:21.501Z,3.10
2019-03-20T10:47:21.471Z,3.50
2019-03-20T10:48:21.482Z,3.30
2019-03-20T10:49:21.524Z,3.40
2019-03-20T10:50:21.719Z,3.50
2019-03-20T10:51:21.464Z,3.50
2019-03-20T10:52:21.411Z,3.70
2019-03-20T10:53:21.450Z,3.50
2019-03-20T10:54:21.389Z,3.60
2019-03-20T10:55:21.377Z,3.50
2019-03-20T10:56:21.380Z,3.50
2019-03-20T10:57:21.352Z,3.80
2019-03-20T10:58:21.367Z,3.70
2019-03-20T10:59:21.369Z,3.80
2019-03-20T11:00:21.334Z,3.60
2019-03-20T11:01:21.316Z,3.80
2019-03-20T11:02:21.311Z,3.80
2019-03-20T11:03:21.291Z,3.70
2019-03-20T11:04:21.337Z,3.90
2019-03-20T11:05:21.276Z,4.00
2019-03-20T11:06:21.262Z,4.00
2019-03-20T11:07:21.249Z,3.70
2019-03-20T11:08:22.231Z,3.60
2019-03-20T11:09:21.254Z,3.80
2019-03-20T11:10:22.221Z,3.50
2019-03-20T11:11:27.112Z,3.70
2019-03-20T11:12:22.203Z,4.00
2019-03-20T11:13:21.186Z,3.70
2019-03-20T11:14:22.164Z,4.00
2019-03-20T11:15:21.169Z,3.90
2019-03-20T11:16:21.202Z,3.80
2019-03-20T11:17:21.151Z,4.10
2019-03-20T11:18:21.157Z,3.50
2019-03-20T11:19:21.145Z,4.00
2019-03-20T11:20:21.687Z,3.70
2019-03-20T11:21:21.123Z,3.90
2019-03-20T11:22:21.125Z,3.70
2019-03-20T11:23:21.109Z,3.80
2019-03-20T11:24:21.640Z,4.10
2019-03-20T11:25:21.079Z,3.60
2019-03-20T11:26:21.051Z,3.80
2019-03-20T11:27:21.035Z,3.50
2019-03-20T11:28:21.022Z,3.80
2019-03-20T11:29:21.810Z,3.80
2019-03-20T11:30:21.034Z,3.80
2019-03-20T11:31:21.048Z,3.60
2019-03-20T11:32:20.987Z,3.40
2019-03-20T11:33:21.001Z,3.90
2019-03-20T11:34:21.000Z,3.60
2019-03-20T11:35:20.942Z,3.30
2019-03-20T11:36:20.931Z,3.40
2019-03-20T11:37:20.938Z,3.50
2019-03-20T11:38:20.928Z,3.50
2019-03-20T11:39:29.221Z,3.50
2019-03-20T11:40:21.906Z,3.60
2019-03-20T11:41:20.893Z,3.60
2019-03-20T11:42:20.863Z,3.40
2019-03-20T11:43:20.906Z,3.40
2019-03-20T11:44:20.912Z,3.40
2019-03-20T11:45:23.374Z,3.10
2019-03-20T11:46:20.830Z,3.30
2019-03-20T11:47:20.843Z,3.50
2019-03-20T11:48:21.658Z,3.60
2019-03-20T11:49:20.817Z,3.80
2019-03-20T11:50:20.795Z,3.80
2019-03-20T11:51:20.783Z,3.40
2019-03-20T11:52:20.816Z,4.20
2019-03-20T11:53:20.744Z,3.60
2019-03-20T11:54:20.772Z,3.50
2019-03-20T11:55:20.752Z,3.30
2019-03-20T11:56:20.723Z,3.60
2019-03-20T11:57:21.756Z,3.50
2019-03-20T11:58:20.723Z,3.60
2019-03-20T11:59:21.218Z,3.40
2019-03-20T12:00:20.675Z,3.50
2019-03-20T12:01:20.694Z,3.50
2019-03-20T12:02:27.980Z,3.70
2019-03-20T12:03:21.699Z,3.20
2019-03-20T12:04:20.656Z,3.20
2019-03-20T12:05:20.643Z,4.00
2019-03-20T12:06:20.611Z,3.90
2019-03-20T12:07:20.591Z,4.00
2019-03-20T12:08:20.668Z,4.10
2019-03-20T12:09:21.123Z,4.10
2019-03-20T12:10:20.626Z,4.40
2019-03-20T12:11:20.972Z,4.30
2019-03-20T12:12:20.545Z,4.40
2019-03-20T12:13:20.533Z,4.20
2019-03-20T12:14:20.521Z,4.50
2019-03-20T12:15:20.538Z,4.60
2019-03-20T12:16:20.510Z,4.50
2019-03-20T12:17:21.147Z,5.20
2019-03-20T12:18:20.485Z,4.50
2019-03-20T12:19:20.469Z,4.40
2019-03-20T12:20:20.520Z,4.70
2019-03-20T12:21:20.471Z,4.80
2019-03-20T12:22:21.139Z,4.30
2019-03-20T12:23:20.454Z,4.40
2019-03-20T12:24:20.407Z,4.40
2019-03-20T12:25:20.424Z,4.70
2019-03-20T12:26:20.384Z,4.80
2019-03-20T12:27:20.386Z,4.30
2019-03-20T12:28:20.404Z,4.40
2019-03-20T12:29:21.154Z,4.50
2019-03-20T12:30:20.360Z,4.00
2019-03-20T12:31:20.330Z,4.50
2019-03-20T12:32:20.326Z,4.60
2019-03-20T12:33:20.330Z,4.80
2019-03-20T12:34:20.312Z,4.70
2019-03-20T12:35:21.100Z,4.70
2019-03-20T12:36:20.298Z,4.90
2019-03-20T12:37:20.268Z,5.20
2019-03-20T12:38:20.285Z,5.00
2019-03-20T12:39:20.267Z,4.50
2019-03-20T12:40:20.294Z,4.30
2019-03-20T12:41:21.097Z,4.20
2019-03-20T12:42:20.239Z,4.50
2019-03-20T12:43:20.234Z,4.20
2019-03-20T12:44:20.189Z,4.10
2019-03-20T12:45:20.239Z,4.30
2019-03-20T12:46:20.188Z,4.10
2019-03-20T12:47:20.187Z,4.50
2019-03-20T12:48:20.144Z,4.40
2019-03-20T12:49:20.137Z,4.30
2019-03-20T12:50:20.190Z,4.30
2019-03-20T12:51:20.176Z,4.10
2019-03-20T12:52:20.154Z,4.10
2019-03-20T12:53:20.088Z,3.90
2019-03-20T12:54:20.087Z,3.60
2019-03-20T12:55:20.078Z,4.30
2019-03-20T12:56:20.083Z,4.40
2019-03-20T12:57:20.049Z,4.10
2019-03-20T12:58:20.099Z,4.00
2019-03-20T12:59:20.037Z,3.80
2019-03-20T13:00:20.025Z,4.10
2019-03-20T13:01:20.028Z,4.50
2019-03-20T13:02:20.030Z,4.50
2019-03-20T13:03:19.981Z,4.60
2019-03-20T13:04:19.991Z,4.60
2019-03-20T13:05:19.984Z,4.50
2019-03-20T13:06:20.009Z,4.50
2019-03-20T13:07:19.938Z,4.50
2019-03-20T13:08:19.947Z,4.30
2019-03-20T13:09:19.923Z,4.40
2019-03-20T13:10:19.932Z,4.40
2019-03-20T13:11:19.977Z,4.60
2019-03-20T13:12:19.941Z,4.90
2019-03-20T13:13:19.934Z,4.70
2019-03-20T13:14:19.898Z,4.50
2019-03-20T13:15:22.629Z,4.40
2019-03-20T13:16:19.884Z,4.20
2019-03-20T13:17:19.834Z,4.90
2019-03-20T13:18:19.852Z,4.90